Time;durP1;ratioP1;P1;durP2;ratioP2;P2;SDS_P1;SDS_P2;PMS_P1;PMS_P2;Temp;Humidity;BMP_temperature;BMP_pressure;BME280_temperature;BME280_humidity;BME280_pressure;Samples;Min_cycle;Max_cycle;Signal;HPM_P1;HPM_P2
2022/05/13 00:02:23;;;;;;;2.50;1.00;;;13.30;99.90;;;;;;6195450;23;20016;-89
2022/05/13 00:04:49;;;;;;;3.10;0.80;;;13.30;99.90;;;;;;6194629;23;20407;-89
2022/05/13 00:07:15;;;;;;;2.10;0.88;;;13.30;99.90;;;;;;6220067;23;20263;-89
2022/05/13 00:12:31;;;;;;;3.85;1.02;;;13.30;99.90;;;;;;6219542;23;20020;-88
2022/05/13 00:14:57;;;;;;;3.58;0.85;;;13.30;99.90;;;;;;6220020;23;20025;-88
2022/05/13 00:17:24;;;;;;;4.75;0.90;;;13.30;99.90;;;;;;6219824;23;20023;-88
2022/05/13 00:19:50;;;;;;;3.30;1.00;;;13.30;99.90;;;;;;6194849;23;20047;-90
2022/05/13 00:22:16;;;;;;;3.15;1.17;;;13.30;99.90;;;;;;6194921;23;20066;-89
2022/05/13 00:24:42;;;;;;;2.83;0.75;;;13.30;99.90;;;;;;6220050;23;20095;-89
2022/05/13 00:27:08;;;;;;;3.70;1.52;;;13.30;99.90;;;;;;6194847;23;20055;-88
2022/05/13 00:29:34;;;;;;;3.20;1.13;;;13.30;99.90;;;;;;6194833;23;20067;-89
2022/05/13 00:32:01;;;;;;;3.45;1.10;;;13.30;99.90;;;;;;6194610;23;20358;-90
2022/05/13 00:34:26;;;;;;;4.22;1.15;;;13.30;99.90;;;;;;6195082;23;20104;-90
2022/05/13 00:36:52;;;;;;;3.43;1.20;;;13.20;99.90;;;;;;6194691;23;20078;-89
2022/05/13 00:39:19;;;;;;;2.75;1.20;;;13.30;99.90;;;;;;6219811;23;20278;-89
2022/05/13 00:41:46;;;;;;;6.68;1.77;;;13.30;99.90;;;;;;6219536;23;20445;-90
2022/05/13 00:44:12;;;;;;;3.22;1.05;;;13.30;99.90;;;;;;6195090;23;20099;-88
2022/05/13 00:46:38;;;;;;;3.30;1.40;;;13.20;99.90;;;;;;6194904;23;20345;-89
2022/05/13 00:49:09;;;;;;;4.60;1.52;;;13.20;99.90;;;;;;6194977;23;20055;-88
2022/05/13 00:51:45;;;;;;;4.95;1.10;;;13.20;99.90;;;;;;6194919;23;20016;-90
2022/05/13 00:54:13;;;;;;;5.38;1.20;;;13.20;99.90;;;;;;6194756;23;20467;-88
2022/05/13 00:56:43;;;;;;;3.03;1.30;;;13.20;99.90;;;;;;6195010;23;20012;-90
2022/05/13 00:59:12;;;;;;;3.13;1.25;;;13.10;99.90;;;;;;6194818;23;20012;-88
2022/05/13 01:01:38;;;;;;;3.30;1.30;;;13.10;99.90;;;;;;6194472;23;20022;-89
2022/05/13 01:04:12;;;;;;;2.90;1.23;;;13.10;99.90;;;;;;6194510;23;20013;-88
2022/05/13 01:06:41;;;;;;;2.03;1.00;;;13.20;99.90;;;;;;6194192;23;20018;-89
2022/05/13 01:09:07;;;;;;;3.05;1.20;;;13.10;99.90;;;;;;6194579;23;20008;-89
2022/05/13 01:11:37;;;;;;;4.55;1.27;;;13.10;99.90;;;;;;6194246;23;20099;-89
2022/05/13 01:14:14;;;;;;;4.28;1.02;;;13.10;99.90;;;;;;6194587;23;20023;-89
2022/05/13 01:19:24;;;;;;;3.33;1.00;;;13.10;99.90;;;;;;6219327;23;20023;-90
2022/05/13 01:21:50;;;;;;;4.65;1.13;;;13.10;99.90;;;;;;6194196;23;20020;-88
2022/05/13 01:24:19;;;;;;;3.95;1.30;;;13.10;99.90;;;;;;6194346;23;20016;-89
2022/05/13 01:26:45;;;;;;;4.63;1.27;;;13.10;99.90;;;;;;6194407;23;20070;-89
2022/05/13 01:29:11;;;;;;;2.58;1.15;;;13.10;99.90;;;;;;6194304;23;20048;-90
2022/05/13 01:31:39;;;;;;;2.30;1.00;;;13.10;99.90;;;;;;6194038;23;20012;-89
2022/05/13 01:34:11;;;;;;;3.85;1.40;;;13.10;99.90;;;;;;6194127;23;20016;-88
2022/05/13 01:36:39;;;;;;;4.47;1.10;;;13.00;99.90;;;;;;6219457;23;20123;-88
2022/05/13 01:39:06;;;;;;;4.75;1.23;;;13.10;99.90;;;;;;6219330;23;20067;-89
2022/05/13 01:41:32;;;;;;;3.70;1.10;;;13.00;99.90;;;;;;6194248;23;20016;-87
2022/05/13 01:43:58;;;;;;;;;;;13.00;99.90;;;;;;6194808;23;20453;-87
2022/05/13 01:46:25;;;;;;;3.35;1.20;;;13.00;99.90;;;;;;6194210;23;19922;-89
2022/05/13 01:48:51;;;;;;;3.22;1.10;;;13.10;99.90;;;;;;6219648;23;20016;-90
2022/05/13 01:51:17;;;;;;;6.22;1.70;;;13.10;99.90;;;;;;6219413;23;20012;-89
2022/05/13 01:53:44;;;;;;;2.80;1.00;;;13.10;99.90;;;;;;6195538;23;20018;-90
2022/05/13 01:56:10;;;;;;;4.68;1.40;;;13.10;99.90;;;;;;6196443;23;20074;-89
2022/05/13 01:58:36;;;;;;;3.63;1.58;;;13.10;99.90;;;;;;6221204;23;20070;-88
2022/05/13 02:01:04;;;;;;;3.97;1.38;;;13.10;99.90;;;;;;6196222;23;20024;-87
2022/05/13 02:03:45;;;;;;;4.03;1.27;;;13.10;99.90;;;;;;6196192;23;20038;-88
2022/05/13 02:06:13;;;;;;;3.97;1.30;;;13.10;99.90;;;;;;6196323;23;20023;-89
2022/05/13 02:08:39;;;;;;;7.82;1.50;;;13.10;99.90;;;;;;6196197;23;20020;-90
2022/05/13 02:11:05;;;;;;;6.07;1.48;;;13.10;99.90;;;;;;6196223;23;20103;-89
2022/05/13 02:13:31;;;;;;;6.40;1.63;;;13.10;99.90;;;;;;6196164;23;20043;-89
2022/05/13 02:15:57;;;;;;;3.97;1.33;;;13.00;99.90;;;;;;6221225;23;20016;-89
2022/05/13 02:18:23;;;;;;;4.53;1.75;;;13.10;99.90;;;;;;6196175;23;20048;-88
2022/05/13 02:20:49;;;;;;;4.10;1.47;;;13.00;99.90;;;;;;6196206;23;20016;-90
2022/05/13 02:23:18;;;;;;;4.18;1.50;;;13.00;99.90;;;;;;6221234;23;20158;-89
2022/05/13 02:25:43;;;;;;;5.40;1.90;;;13.00;99.90;;;;;;6196055;23;20018;-88
2022/05/13 02:28:09;;;;;;;4.47;1.87;;;13.00;99.90;;;;;;6248007;23;20016;-90
2022/05/13 02:30:35;;;;;;;5.33;1.87;;;13.00;99.90;;;;;;6221163;23;20070;-90
2022/05/13 02:33:01;;;;;;;5.45;2.08;;;13.00;99.90;;;;;;6196104;23;20017;-89
2022/05/13 02:35:27;;;;;;;4.38;1.38;;;13.00;99.90;;;;;;6196132;23;20048;-89
2022/05/13 02:37:54;;;;;;;4.43;1.67;;;13.00;99.90;;;;;;6195829;23;20020;-90
2022/05/13 02:40:20;;;;;;;;;;;13.00;99.90;;;;;;6221515;23;20020;-89
2022/05/13 02:42:46;;;;;;;4.47;1.52;;;12.90;99.90;;;;;;6196131;23;20226;-89
2022/05/13 02:45:12;;;;;;;4.30;2.00;;;12.90;99.90;;;;;;6195969;23;20336;-89
2022/05/13 02:47:40;;;;;;;7.13;1.75;;;12.90;99.90;;;;;;6195875;23;20012;-91
2022/05/13 02:50:18;;;;;;;3.35;1.52;;;12.90;99.90;;;;;;6195865;23;20460;-89
2022/05/13 02:52:50;;;;;;;5.68;1.55;;;12.90;99.90;;;;;;6195978;23;20020;-87
2022/05/13 02:55:16;;;;;;;5.97;1.67;;;12.90;99.90;;;;;;6196056;23;20013;-90
2022/05/13 02:57:42;;;;;;;6.68;1.77;;;12.90;99.90;;;;;;6221088;23;20085;-88
2022/05/13 03:00:09;;;;;;;4.50;1.60;;;12.90;99.90;;;;;;6195970;23;20477;-89
2022/05/13 03:02:35;;;;;;;;;;;12.90;99.90;;;;;;6196519;23;20013;-91
2022/05/13 03:05:00;;;;;;;4.70;1.52;;;12.90;99.90;;;;;;6220538;23;19974;-91
2022/05/13 03:07:26;;;;;;;5.23;1.87;;;12.90;99.90;;;;;;6196023;23;20016;-89
2022/05/13 03:09:52;;;;;;;3.53;1.50;;;12.90;99.90;;;;;;6195795;23;20047;-90
2022/05/13 03:12:18;;;;;;;7.70;2.13;;;12.90;99.90;;;;;;6195747;23;20055;-89
2022/05/13 03:14:44;;;;;;;5.45;1.90;;;12.90;99.90;;;;;;6220710;23;20051;-90
2022/05/13 03:17:10;;;;;;;6.57;1.65;;;12.90;99.90;;;;;;6195560;23;20019;-91
2022/05/13 03:19:37;;;;;;;5.35;1.70;;;12.90;99.90;;;;;;6195623;23;20020;-90
2022/05/13 03:22:04;;;;;;;5.15;1.65;;;12.90;99.90;;;;;;6195485;23;20098;-88
2022/05/13 03:24:30;;;;;;;5.68;2.17;;;12.90;99.90;;;;;;6195664;23;20044;-88
2022/05/13 03:26:56;;;;;;;9.23;2.05;;;12.90;99.90;;;;;;6220531;23;20464;-90
2022/05/13 03:29:21;;;;;;;5.28;1.63;;;12.90;99.90;;;;;;6195729;23;20047;-89
2022/05/13 03:31:47;;;;;;;3.45;1.40;;;12.90;99.90;;;;;;6195589;23;20024;-91
2022/05/13 03:34:13;;;;;;;5.33;1.40;;;12.90;99.90;;;;;;6195941;23;20020;-89
2022/05/13 03:36:39;;;;;;;5.15;2.15;;;12.90;99.90;;;;;;6195422;23;20279;-90
2022/05/13 03:39:05;;;;;;;4.30;1.40;;;12.90;99.90;;;;;;6195412;23;20070;-90
2022/05/13 03:41:30;;;;;;;4.82;1.52;;;12.90;99.90;;;;;;6195475;23;20023;-90
2022/05/13 03:43:56;;;;;;;3.80;1.40;;;12.90;99.90;;;;;;6195168;23;20054;-89
2022/05/13 03:46:22;;;;;;;5.07;1.50;;;12.90;99.90;;;;;;6195302;23;20071;-90
2022/05/13 03:48:48;;;;;;;5.78;1.50;;;12.90;99.90;;;;;;6195345;23;20044;-89
2022/05/13 03:51:14;;;;;;;5.80;1.58;;;12.90;99.90;;;;;;6195252;23;20027;-89
2022/05/13 03:53:41;;;;;;;8.32;1.58;;;12.90;99.90;;;;;;6220378;23;20438;-89
2022/05/13 03:56:07;;;;;;;3.85;1.50;;;12.90;99.90;;;;;;6195239;23;20020;-90
2022/05/13 03:58:33;;;;;;;4.30;2.00;;;12.90;99.90;;;;;;6195512;23;20016;-89
2022/05/13 04:00:59;;;;;;;4.60;1.20;;;12.90;99.90;;;;;;6220451;23;20008;-89
2022/05/13 04:03:25;;;;;;;7.53;1.50;;;12.90;99.90;;;;;;6195289;23;20035;-88
2022/05/13 04:11:19;;;;;;;3.30;1.38;;;12.90;99.90;;;;;;6220138;23;20060;-90
2022/05/13 04:16:29;;;;;;;6.85;1.75;;;12.90;99.90;;;;;;6219476;23;20027;-90
2022/05/13 04:18:55;;;;;;;10.18;1.63;;;12.90;99.90;;;;;;6195291;23;20042;-89
2022/05/13 04:21:28;;;;;;;5.80;1.83;;;12.90;99.90;;;;;;6195216;23;20345;-90
2022/05/13 04:23:56;;;;;;;4.57;1.58;;;12.90;99.90;;;;;;6220353;23;20012;-88
2022/05/13 04:26:23;;;;;;;6.13;1.70;;;12.90;99.90;;;;;;6195182;23;20020;-90
2022/05/13 04:28:50;;;;;;;7.45;1.55;;;12.80;99.90;;;;;;6195372;23;20012;-90
2022/05/13 04:31:20;;;;;;;5.43;1.50;;;12.80;99.90;;;;;;6194937;23;20335;-90
2022/05/13 04:33:47;;;;;;;7.13;1.80;;;12.80;99.90;;;;;;6195059;23;20027;-89
2022/05/13 04:36:12;;;;;;;;;;;12.80;99.90;;;;;;6195499;23;20010;-90
2022/05/13 04:38:38;;;;;;;4.65;1.38;;;12.80;99.90;;;;;;6220159;23;19919;-91
2022/05/13 04:43:49;;;;;;;4.63;2.00;;;12.80;99.90;;;;;;6220006;23;20346;-89
2022/05/13 04:46:16;;;;;;;7.15;1.73;;;12.80;99.90;;;;;;6194953;23;20016;-90
2022/05/13 04:48:41;;;;;;;;;;;12.80;99.90;;;;;;6220746;23;20031;-92
2022/05/13 04:51:10;;;;;;;6.45;1.50;;;12.90;99.90;;;;;;6220139;23;19994;-93
2022/05/13 04:54:03;;;;;;;6.30;2.20;;;12.80;99.90;;;;;;6220231;23;20103;-92
2022/05/13 04:56:31;;;;;;;8.57;2.20;;;12.90;99.90;;;;;;6195536;23;20023;-89
2022/05/13 04:58:58;;;;;;;4.82;1.48;;;12.90;99.90;;;;;;6195193;23;20027;-94
2022/05/13 05:01:25;;;;;;;6.30;1.90;;;12.90;99.90;;;;;;6220342;23;20348;-91
2022/05/13 05:03:51;;;;;;;6.93;1.98;;;12.90;99.90;;;;;;6195220;23;20016;-92
2022/05/13 05:06:19;;;;;;;4.50;1.85;;;12.90;99.90;;;;;;6194893;23;20018;-91
2022/05/13 05:09:13;;;;;;;6.13;1.85;;;12.90;99.90;;;;;;6195855;23;20016;-91
2022/05/13 05:11:59;;;;;;;4.30;1.92;;;12.90;99.90;;;;;;6210216;23;20068;-88
2022/05/13 05:14:24;;;;;;;4.38;1.40;;;12.90;99.90;;;;;;6217035;23;20000;-90
2022/05/13 05:16:55;;;;;;;6.77;1.40;;;13.00;99.90;;;;;;6233568;23;20108;-96
2022/05/13 05:19:22;;;;;;;4.72;1.27;;;13.00;99.90;;;;;;6200071;23;20016;-95
2022/05/13 05:21:49;;;;;;;4.10;1.20;;;13.00;99.90;;;;;;6229718;23;20056;-96
2022/05/13 05:24:17;;;;;;;4.40;1.25;;;13.10;99.90;;;;;;6208047;23;20020;-90
2022/05/13 05:26:46;;;;;;;4.80;1.17;;;13.10;99.90;;;;;;6236722;23;20013;-86
2022/05/13 05:36:58;;;;;;;4.57;1.00;;;13.20;99.90;;;;;;6217735;22;20020;-93
2022/05/13 05:39:24;;;;;;;4.47;1.17;;;13.20;99.90;;;;;;6164848;23;20512;-90
2022/05/13 05:41:50;;;;;;;6.80;1.40;;;13.20;99.90;;;;;;6164788;23;20020;-92
2022/05/13 05:44:15;;;;;;;4.50;1.10;;;13.30;99.90;;;;;;6164807;23;20016;-93
2022/05/13 05:46:41;;;;;;;5.10;1.07;;;13.30;99.90;;;;;;6165005;23;20013;-92
2022/05/13 05:49:07;;;;;;;4.13;1.13;;;13.40;99.90;;;;;;6189782;23;20012;-93
2022/05/13 05:51:33;;;;;;;5.03;1.20;;;13.40;99.90;;;;;;6163669;23;20024;-91
2022/05/13 05:59:27;;;;;;;4.47;1.05;;;13.40;99.90;;;;;;6189491;23;20454;-93
2022/05/13 06:01:53;;;;;;;4.37;0.90;;;13.50;99.90;;;;;;6164701;23;20048;-94
2022/05/13 06:04:18;;;;;;;2.87;1.60;;;13.50;99.90;;;;;;6189326;23;20309;-92
2022/05/13 06:06:44;;;;;;;2.65;0.73;;;13.50;99.90;;;;;;6164768;23;20017;-88
2022/05/13 06:09:10;;;;;;;4.40;1.10;;;13.50;99.90;;;;;;6164283;23;20016;-90
2022/05/13 06:11:37;;;;;;;2.78;0.80;;;13.40;99.90;;;;;;6188663;23;20028;-87
2022/05/13 06:14:03;;;;;;;2.70;0.85;;;13.50;99.90;;;;;;6189021;23;20473;-89
2022/05/13 06:16:30;;;;;;;3.53;1.05;;;13.40;99.90;;;;;;6164577;23;20016;-92
2022/05/13 06:19:11;;;;;;;2.75;1.00;;;13.40;99.90;;;;;;6164864;23;20386;-89
2022/05/13 06:21:37;;;;;;;2.83;1.33;;;13.40;99.90;;;;;;6164421;23;20016;-90
2022/05/13 06:24:03;;;;;;;4.28;1.02;;;13.40;99.90;;;;;;6189871;23;20016;-89
2022/05/13 06:26:31;;;;;;;3.90;0.80;;;13.50;99.90;;;;;;6189470;23;20016;-91
2022/05/13 06:28:57;;;;;;;2.35;0.70;;;13.50;99.90;;;;;;6189574;23;20430;-91
2022/05/13 06:31:23;;;;;;;1.92;0.80;;;13.50;99.90;;;;;;6167004;23;20016;-90
2022/05/13 06:33:50;;;;;;;3.13;1.27;;;13.50;99.90;;;;;;6194242;23;20013;-88
2022/05/13 06:36:16;;;;;;;3.15;0.70;;;13.50;99.90;;;;;;6237785;23;20021;-87
2022/05/13 06:38:42;;;;;;;3.22;0.90;;;13.50;99.90;;;;;;6197346;23;20031;-89
2022/05/13 06:41:09;;;;;;;2.60;0.65;;;13.50;99.90;;;;;;6201283;23;20019;-90
2022/05/13 06:43:34;;;;;;;3.33;0.80;;;13.60;99.90;;;;;;6203741;23;20071;-89
2022/05/13 06:46:00;;;;;;;1.42;0.60;;;13.60;99.90;;;;;;6194506;23;20446;-93
2022/05/13 06:48:26;;;;;;;2.00;0.70;;;13.60;99.90;;;;;;6168084;23;20021;-91
2022/05/13 06:50:52;;;;;;;5.10;1.20;;;13.70;99.90;;;;;;6191315;23;20012;-89
2022/05/13 06:53:20;;;;;;;3.90;0.80;;;13.70;99.90;;;;;;6191207;23;20020;-96
2022/05/13 06:55:46;;;;;;;3.67;1.45;;;13.70;99.90;;;;;;6191577;23;20012;-91
2022/05/13 06:58:13;;;;;;;3.38;1.00;;;13.80;99.90;;;;;;6166731;23;20020;-91
2022/05/13 07:00:39;;;;;;;3.53;1.25;;;13.90;99.90;;;;;;6191602;23;20438;-93
2022/05/13 07:03:06;;;;;;;2.67;0.80;;;14.00;99.90;;;;;;6221168;23;20043;-92
2022/05/13 07:05:32;;;;;;;4.68;1.27;;;14.00;99.90;;;;;;6191851;23;20017;-93
2022/05/13 07:07:59;;;;;;;3.75;0.90;;;14.10;99.90;;;;;;6191459;23;20023;-93
2022/05/13 07:10:25;;;;;;;5.53;0.98;;;14.20;99.90;;;;;;6219146;23;20095;-94
2022/05/13 07:12:52;;;;;;;1.65;0.90;;;14.20;99.90;;;;;;6191987;23;20353;-96
2022/05/13 07:15:20;;;;;;;1.92;0.80;;;14.20;99.90;;;;;;6192352;23;20017;-92
2022/05/13 07:17:46;;;;;;;1.60;0.80;;;14.30;99.90;;;;;;6191573;23;20027;-91
2022/05/13 07:20:14;;;;;;;2.83;0.95;;;14.20;99.90;;;;;;6166606;23;20020;-92
2022/05/13 07:22:39;;;;;;;5.18;0.73;;;14.10;99.90;;;;;;6166094;23;20043;-95
2022/05/13 07:25:06;;;;;;;3.03;0.70;;;14.10;99.90;;;;;;6166145;23;20454;-93
2022/05/13 07:27:32;;;;;;;3.63;0.82;;;14.00;99.90;;;;;;6190831;23;20038;-91
2022/05/13 07:29:57;;;;;;;2.00;0.90;;;14.00;99.90;;;;;;6166014;23;20083;-91
2022/05/13 07:32:23;;;;;;;2.27;0.80;;;14.00;99.90;;;;;;6165367;23;20027;-90
2022/05/13 07:34:49;;;;;;;3.13;0.80;;;14.10;99.90;;;;;;6191109;23;20055;-96
2022/05/13 07:37:15;;;;;;;2.00;0.80;;;14.20;99.90;;;;;;6165917;23;20074;-95
2022/05/13 07:42:25;;;;;;;4.00;0.95;;;14.40;99.90;;;;;;6190618;23;20351;-89
2022/05/13 07:44:51;;;;;;;2.92;0.90;;;14.40;99.90;;;;;;6190207;23;20017;-89
2022/05/13 07:47:19;;;;;;;4.97;1.52;;;14.40;99.90;;;;;;6165771;23;20020;-94
2022/05/13 07:49:45;;;;;;;2.72;0.73;;;14.40;99.90;;;;;;6190671;23;20112;-89
2022/05/13 07:52:12;;;;;;;1.88;0.70;;;14.50;99.90;;;;;;6189824;23;20362;-91
2022/05/13 07:54:38;;;;;;;2.75;0.77;;;14.70;99.90;;;;;;6165478;23;20059;-90
2022/05/13 07:57:05;;;;;;;2.22;0.88;;;14.80;99.90;;;;;;6189957;23;20013;-87
2022/05/13 07:59:32;;;;;;;2.25;0.70;;;14.90;99.90;;;;;;6165128;23;20465;-93
2022/05/13 08:01:58;;;;;;;2.08;0.57;;;15.00;99.90;;;;;;6217091;23;20051;-94
2022/05/13 08:04:25;;;;;;;5.22;0.80;;;15.10;99.90;;;;;;6190462;23;20009;-92
2022/05/13 08:06:50;;;;;;;2.28;0.60;;;15.20;99.90;;;;;;6191127;23;20071;-94
2022/05/13 08:09:17;;;;;;;1.80;0.50;;;15.10;99.90;;;;;;6216930;23;20377;-89
2022/05/13 08:11:44;;;;;;;3.60;0.60;;;15.00;99.90;;;;;;6164987;23;20021;-88
2022/05/13 08:14:10;;;;;;;1.83;0.68;;;14.90;99.90;;;;;;6189675;23;20023;-89
2022/05/13 08:16:36;;;;;;;3.00;0.52;;;14.80;99.90;;;;;;6189757;23;20028;-92
2022/05/13 08:19:03;;;;;;;2.45;0.88;;;14.70;99.90;;;;;;6165610;23;20052;-94
2022/05/13 08:21:30;;;;;;;1.35;0.60;;;14.70;99.90;;;;;;6190343;23;20472;-95
2022/05/13 08:23:57;;;;;;;2.13;0.68;;;14.70;99.90;;;;;;6165831;23;20016;-94
2022/05/13 08:26:23;;;;;;;5.25;0.93;;;14.60;99.90;;;;;;6165545;23;20020;-92
2022/05/13 08:28:48;;;;;;;1.83;0.60;;;14.60;99.90;;;;;;6190353;23;20020;-93
2022/05/13 08:31:14;;;;;;;2.03;0.50;;;14.60;99.90;;;;;;6190691;23;20026;-94
2022/05/13 08:33:41;;;;;;;1.67;0.53;;;14.70;99.90;;;;;;6190193;23;20056;-91
2022/05/13 08:36:07;;;;;;;4.57;0.70;;;14.70;99.90;;;;;;6189745;23;20298;-89
2022/05/13 08:38:37;;;;;;;1.50;0.60;;;14.70;99.90;;;;;;6164868;23;20450;-93
2022/05/13 08:41:08;;;;;;;1.60;0.57;;;14.70;99.90;;;;;;6165278;23;20019;-89
2022/05/13 08:43:49;;;;;;;3.05;0.77;;;14.70;99.90;;;;;;6165203;23;20044;-92
2022/05/13 08:46:30;;;;;;;1.95;0.60;;;14.70;99.90;;;;;;6190056;23;20535;-93
2022/05/13 08:49:16;;;;;;;2.40;0.57;;;14.80;99.90;;;;;;6165149;23;20025;-93
2022/05/13 08:52:04;;;;;;;2.00;0.68;;;14.80;99.90;;;;;;6165661;23;20055;-92
2022/05/13 08:54:31;;;;;;;;;;;14.90;99.90;;;;;;6165359;23;20027;-91
2022/05/13 08:57:01;;;;;;;2.75;0.85;;;14.90;99.90;;;;;;6189844;23;19995;-91
2022/05/13 08:59:35;;;;;;;1.83;0.70;;;15.00;99.90;;;;;;6164953;23;20450;-92
2022/05/13 09:02:10;;;;;;;2.35;0.82;;;15.00;99.90;;;;;;6164513;23;20069;-89
2022/05/13 09:04:47;;;;;;;2.25;0.50;;;15.10;99.90;;;;;;6164866;23;20017;-88
2022/05/13 09:07:20;;;;;;;2.08;0.60;;;15.10;99.90;;;;;;6164520;23;20458;-90
2022/05/13 09:09:51;;;;;;;2.70;0.85;;;15.10;99.90;;;;;;6164965;23;20016;-87
2022/05/13 09:12:26;;;;;;;1.70;0.65;;;15.30;99.90;;;;;;6189383;23;20013;-87
2022/05/13 09:15:04;;;;;;;2.50;0.60;;;15.40;99.90;;;;;;6164772;23;20020;-88
2022/05/13 09:17:58;;;;;;;1.85;0.57;;;15.50;99.90;;;;;;6189757;23;20099;-87
2022/05/13 09:20:26;;;;;;;1.20;0.40;;;15.50;99.90;;;;;;6164933;23;20055;-89
2022/05/13 09:23:01;;;;;;;2.47;0.65;;;15.40;99.90;;;;;;6165593;23;20020;-87
2022/05/13 09:25:43;;;;;;;3.78;0.80;;;15.30;99.90;;;;;;6191538;23;20012;-88
2022/05/13 09:28:13;;;;;;;2.20;0.90;;;15.30;99.90;;;;;;6175108;23;20089;-90
2022/05/13 09:30:55;;;;;;;1.73;0.63;;;15.30;99.90;;;;;;6171153;23;20024;-88
2022/05/13 09:33:37;;;;;;;2.28;0.60;;;15.40;99.90;;;;;;6172634;23;20051;-90
2022/05/13 09:36:09;;;;;;;3.40;1.00;;;15.30;99.90;;;;;;6177930;23;20021;-92
2022/05/13 09:39:07;;;;;;;1.85;0.60;;;15.30;99.90;;;;;;6160805;23;20057;-92
2022/05/13 09:41:35;;;;;;;1.65;0.60;;;15.20;99.90;;;;;;6133434;23;20017;-90
2022/05/13 09:44:18;;;;;;;2.17;0.60;;;15.20;99.90;;;;;;6159435;23;20017;-92
2022/05/13 09:47:07;;;;;;;2.53;0.60;;;15.20;99.90;;;;;;6159531;23;20439;-91
2022/05/13 09:49:38;;;;;;;3.15;0.77;;;15.30;99.90;;;;;;6159612;23;20036;-92
2022/05/13 09:52:27;;;;;;;1.25;0.50;;;15.40;99.90;;;;;;6159391;23;20354;-90
2022/05/13 09:54:55;;;;;;;2.55;0.30;;;15.40;99.90;;;;;;6159542;23;20351;-91
2022/05/13 09:57:33;;;;;;;1.10;0.43;;;15.40;99.90;;;;;;6160037;23;20079;-89
2022/05/13 10:00:20;;;;;;;2.13;0.60;;;15.30;99.90;;;;;;6159715;23;20052;-90
2022/05/13 10:02:49;;;;;;;1.02;0.38;;;15.30;99.90;;;;;;6159479;23;20017;-93
2022/05/13 10:05:26;;;;;;;1.45;0.40;;;15.20;99.90;;;;;;6136110;23;20017;-93
2022/05/13 10:07:58;;;;;;;2.63;0.80;;;15.20;99.90;;;;;;6161483;23;20017;-94
2022/05/13 10:16:30;;;;;;;2.08;0.65;;;15.10;99.90;;;;;;6194890;23;20082;-89
2022/05/13 10:19:01;;;;;;;2.15;0.68;;;15.20;99.90;;;;;;6170051;23;20064;-94
2022/05/13 10:21:46;;;;;;;2.70;1.10;;;15.40;99.90;;;;;;6170525;23;20543;-96
2022/05/13 10:24:12;;;;;;;2.15;0.50;;;15.60;99.90;;;;;;6194151;23;20012;-94
2022/05/13 10:26:41;;;;;;;2.60;0.73;;;15.80;99.90;;;;;;6168097;23;20568;-96
2022/05/13 10:29:21;;;;;;;2.30;0.82;;;15.90;99.90;;;;;;6221455;23;20027;-93
2022/05/13 10:31:49;;;;;;;5.18;0.68;;;15.90;99.90;;;;;;6167662;23;20027;-92
2022/05/13 10:34:34;;;;;;;1.73;0.50;;;15.90;99.90;;;;;;6193336;23;20013;-94
2022/05/13 10:37:07;;;;;;;2.13;0.45;;;15.90;99.90;;;;;;6170340;23;20013;-96
2022/05/13 10:39:45;;;;;;;1.23;0.40;;;15.90;99.90;;;;;;6218306;23;20068;-96
2022/05/13 10:42:28;;;;;;;1.67;0.43;;;16.00;99.90;;;;;;6192058;23;20017;-94
2022/05/13 10:45:25;;;;;;;2.15;0.30;;;15.90;99.90;;;;;;6166476;23;20457;-90
2022/05/13 10:48:06;;;;;;;1.08;0.40;;;15.90;99.90;;;;;;6166763;23;20027;-92
2022/05/13 10:51:04;;;;;;;2.17;0.30;;;15.80;99.90;;;;;;6166694;23;20020;-94
2022/05/13 10:54:02;;;;;;;2.35;0.60;;;15.80;99.90;;;;;;6163118;23;20020;-91
2022/05/13 10:56:36;;;;;;;1.20;0.20;;;15.70;99.90;;;;;;6164521;23;20009;-93
2022/05/13 11:04:40;;;;;;;2.42;1.25;;;15.80;99.90;;;;;;6246661;22;20024;-93
2022/05/13 11:07:17;;;;;;;2.80;0.57;;;15.80;99.90;;;;;;6196092;23;20020;-90
2022/05/13 11:10:18;;;;;;;3.13;0.40;;;15.90;99.90;;;;;;6196251;23;20024;-89
2022/05/13 11:13:08;;;;;;;1.83;0.57;;;16.00;99.90;;;;;;6072412;23;20015;-94
2022/05/13 11:15:48;;;;;;;1.38;0.60;;;15.90;99.90;;;;;;6215297;23;20091;-94
2022/05/13 11:18:38;;;;;;;1.08;0.40;;;15.90;99.90;;;;;;6221347;23;20039;-95
2022/05/13 11:21:10;;;;;;;1.70;0.60;;;15.80;99.90;;;;;;6196293;23;20044;-94
2022/05/13 11:26:53;;;;;;;1.38;0.57;;;15.70;99.90;;;;;;6220975;23;20028;-91
2022/05/13 11:29:55;;;;;;;4.60;0.82;;;15.60;99.90;;;;;;6195855;23;20454;-92
2022/05/13 11:32:45;;;;;;;3.53;0.63;;;15.60;99.90;;;;;;6195475;23;20099;-90
2022/05/13 11:35:40;;;;;;;2.28;0.70;;;15.60;99.90;;;;;;6195793;23;20019;-92
2022/05/13 11:39:00;;;;;;;5.97;0.75;;;15.50;99.90;;;;;;6195534;23;20016;-91
2022/05/13 11:45:23;;;;;;;3.88;1.20;;;15.70;99.90;;;;;;6195224;23;20345;-89
2022/05/13 11:48:36;;;;;;;4.05;0.80;;;15.80;99.90;;;;;;6195746;23;20354;-92
2022/05/13 11:51:28;;;;;;;3.63;0.75;;;15.90;99.90;;;;;;6071562;23;20018;-90
2022/05/13 11:56:43;;;;;;;1.77;0.55;;;16.10;99.90;;;;;;6210092;23;20021;-92
2022/05/13 11:59:29;;;;;;;3.72;0.90;;;16.10;99.90;;;;;;6163799;23;20095;-91
2022/05/13 12:02:10;;;;;;;2.45;0.80;;;16.10;99.90;;;;;;6165655;23;20012;-92
2022/05/13 12:04:39;;;;;;;2.75;0.75;;;16.10;99.90;;;;;;6165400;23;20024;-92
2022/05/13 12:07:31;;;;;;;3.25;0.70;;;16.10;99.90;;;;;;6191066;23;20074;-92
2022/05/13 12:10:04;;;;;;;2.63;0.80;;;16.10;99.90;;;;;;6166363;23;20023;-92
2022/05/13 12:12:58;;;;;;;2.90;0.80;;;16.20;99.90;;;;;;6166321;23;20017;-93
2022/05/13 12:16:09;;;;;;;1.55;0.60;;;16.10;99.90;;;;;;6166273;23;20020;-91
2022/05/13 12:18:49;;;;;;;2.22;0.60;;;16.10;99.90;;;;;;6114447;23;20021;-91
2022/05/13 12:21:29;;;;;;;2.65;0.70;;;16.10;99.90;;;;;;6181864;23;20052;-92
2022/05/13 12:24:15;;;;;;;1.77;0.60;;;16.10;99.90;;;;;;6180771;23;20095;-94
2022/05/13 12:26:53;;;;;;;2.13;0.60;;;16.00;99.90;;;;;;6227307;23;20011;-89
2022/05/13 12:29:36;;;;;;;2.25;0.60;;;16.00;99.90;;;;;;6190022;23;20024;-94
2022/05/13 12:32:07;;;;;;;3.00;0.60;;;16.10;99.90;;;;;;6170458;23;20052;-93
2022/05/13 12:38:06;;;;;;;2.97;0.52;;;16.30;99.90;;;;;;6190195;23;20027;-93
2022/05/13 12:40:38;;;;;;;3.03;0.73;;;16.40;99.90;;;;;;6165644;23;20048;-95
2022/05/13 12:43:25;;;;;;;2.80;0.70;;;16.50;99.90;;;;;;6165594;23;20020;-94
2022/05/13 12:46:36;;;;;;;2.70;0.60;;;16.60;99.90;;;;;;6166069;23;20017;-91
2022/05/13 12:49:09;;;;;;;3.17;1.00;;;16.60;99.90;;;;;;6165343;23;20020;-94
2022/05/13 12:51:52;;;;;;;2.17;0.70;;;16.50;99.90;;;;;;6165570;23;20095;-94
2022/05/13 12:54:30;;;;;;;2.50;0.60;;;16.40;99.90;;;;;;6190374;23;20052;-94
2022/05/13 12:57:07;;;;;;;2.70;1.13;;;16.60;99.90;;;;;;6170355;23;20483;-93
2022/05/13 13:50:30;;;;;;;1.58;0.43;;;17.70;97.30;;;;;;6244844;22;20099;-91
2022/05/13 13:52:57;;;;;;;3.50;0.70;;;17.80;96.70;;;;;;6218533;23;20020;-94
2022/05/13 13:55:24;;;;;;;;;;;17.80;96.60;;;;;;6193203;23;20083;-88
2022/05/13 13:58:11;;;;;;;3.65;0.60;;;17.80;95.50;;;;;;6167904;23;20022;-92
2022/05/13 14:00:40;;;;;;;3.65;0.85;;;17.70;95.80;;;;;;6169667;23;20012;-93
2022/05/13 14:03:09;;;;;;;3.15;0.80;;;17.70;96.10;;;;;;6167399;23;20059;-93
2022/05/13 14:05:52;;;;;;;2.60;0.40;;;17.60;95.40;;;;;;6167577;23;20086;-93
2022/05/13 14:08:18;;;;;;;2.28;0.50;;;17.50;95.20;;;;;;6221763;23;20023;-92
2022/05/13 14:11:06;;;;;;;2.10;0.73;;;17.40;95.10;;;;;;6197986;23;20017;-89
2022/05/13 14:13:48;;;;;;;3.05;0.60;;;17.30;95.10;;;;;;6229038;23;20017;-88
2022/05/13 14:16:24;;;;;;;5.05;1.50;;;17.20;95.60;;;;;;6193607;23;20087;-95
2022/05/13 14:19:01;;;;;;;2.55;0.68;;;17.10;95.70;;;;;;6223581;23;20020;-94
2022/05/13 14:21:30;;;;;;;2.42;0.68;;;17.00;96.00;;;;;;6198118;23;20031;-94
2022/05/13 14:24:01;;;;;;;3.95;0.77;;;17.10;96.10;;;;;;6199057;23;20019;-92
2022/05/13 14:26:29;;;;;;;2.15;0.52;;;17.10;96.00;;;;;;6221234;23;20032;-91
2022/05/13 14:28:55;;;;;;;1.73;0.45;;;17.00;96.00;;;;;;6197960;23;20013;-92
2022/05/13 14:31:35;;;;;;;;;;;17.00;96.10;;;;;;6179136;23;20021;-91
2022/05/13 14:34:09;;;;;;;5.70;1.17;;;16.90;95.90;;;;;;6194401;22;19917;-90
2022/05/13 14:36:39;;;;;;;3.35;0.88;;;16.90;96.30;;;;;;6256655;22;20024;-92
2022/05/13 14:42:00;;;;;;;1.33;0.52;;;16.90;96.30;;;;;;6256541;22;20464;-90
2022/05/13 14:44:39;;;;;;;3.45;1.08;;;16.80;96.10;;;;;;6258680;22;20068;-94
2022/05/13 14:47:16;;;;;;;2.83;0.50;;;16.80;96.00;;;;;;6264781;22;20016;-93
2022/05/13 14:55:00;;;;;;;3.55;0.80;;;16.80;95.80;;;;;;6226699;23;20017;-93
2022/05/13 14:57:30;;;;;;;4.00;0.85;;;16.80;95.90;;;;;;6202274;23;20035;-93
2022/05/13 15:00:03;;;;;;;1.30;0.40;;;16.80;95.90;;;;;;6197685;23;20017;-91
2022/05/13 15:03:06;;;;;;;1.75;0.50;;;16.80;95.70;;;;;;6166521;23;20023;-91
2022/05/13 15:05:39;;;;;;;4.03;0.70;;;16.80;95.40;;;;;;6190392;23;20017;-93
2022/05/13 15:08:30;;;;;;;2.92;0.77;;;16.70;95.20;;;;;;6167537;23;20066;-88